sensor_id;sensor_type;location;lat;lon;timestamp;temperature;humidity
76936;DHT22;65881;52.438;16.744;2023-12-22T00:01:17;4.40;99.90
76936;DHT22;65881;52.438;16.744;2023-12-22T00:03:43;4.30;99.90
76936;DHT22;65881;52.438;16.744;2023-12-22T00:06:11;4.30;99.90
76936;DHT22;65881;52.438;16.744;2023-12-22T00:08:37;4.20;99.90
76936;DHT22;65881;52.438;16.744;2023-12-22T00:11:03;4.30;99.90
76936;DHT22;65881;52.438;16.744;2023-12-22T00:13:30;4.20;99.90
76936;DHT22;65881;52.438;16.744;2023-12-22T00:15:58;4.10;99.90
76936;DHT22;65881;52.438;16.744;2023-12-22T00:18:23;4.00;99.90
76936;DHT22;65881;52.438;16.744;2023-12-22T00:20:49;4.00;99.90
76936;DHT22;65881;52.438;16.744;2023-12-22T00:23:15;3.90;99.90
76936;DHT22;65881;52.438;16.744;2023-12-22T00:25:40;3.90;99.90
76936;DHT22;65881;52.438;16.744;2023-12-22T00:28:06;4.00;99.90
76936;DHT22;65881;52.438;16.744;2023-12-22T00:30:32;4.00;99.90
76936;DHT22;65881;52.438;16.744;2023-12-22T00:32:57;4.10;99.90
76936;DHT22;65881;52.438;16.744;2023-12-22T00:35:23;4.00;99.90
76936;DHT22;65881;52.438;16.744;2023-12-22T00:37:49;4.00;99.90
76936;DHT22;65881;52.438;16.744;2023-12-22T00:40:15;4.00;99.90
76936;DHT22;65881;52.438;16.744;2023-12-22T00:42:40;4.10;99.90
76936;DHT22;65881;52.438;16.744;2023-12-22T00:45:06;4.10;99.90
76936;DHT22;65881;52.438;16.744;2023-12-22T00:47:32;4.10;99.90
76936;DHT22;65881;52.438;16.744;2023-12-22T00:50:01;4.20;99.90
76936;DHT22;65881;52.438;16.744;2023-12-22T00:52:27;4.20;99.90
76936;DHT22;65881;52.438;16.744;2023-12-22T00:54:53;4.20;99.90
76936;DHT22;65881;52.438;16.744;2023-12-22T00:57:18;4.20;99.90
76936;DHT22;65881;52.438;16.744;2023-12-22T00:59:44;4.20;99.90
76936;DHT22;65881;52.438;16.744;2023-12-22T01:02:16;4.20;99.90
76936;DHT22;65881;52.438;16.744;2023-12-22T01:04:42;4.20;99.90
76936;DHT22;65881;52.438;16.744;2023-12-22T01:07:08;4.20;99.90
76936;DHT22;65881;52.438;16.744;2023-12-22T01:09:34;4.20;99.90
76936;DHT22;65881;52.438;16.744;2023-12-22T01:12:00;4.10;99.90
76936;DHT22;65881;52.438;16.744;2023-12-22T01:14:29;4.10;99.90
76936;DHT22;65881;52.438;16.744;2023-12-22T01:16:55;4.00;99.90
76936;DHT22;65881;52.438;16.744;2023-12-22T01:19:21;4.00;99.90
76936;DHT22;65881;52.438;16.744;2023-12-22T01:21:46;4.00;99.90
76936;DHT22;65881;52.438;16.744;2023-12-22T01:24:12;4.00;99.90
76936;DHT22;65881;52.438;16.744;2023-12-22T01:26:38;4.00;99.90
76936;DHT22;65881;52.438;16.744;2023-12-22T01:29:03;4.00;99.90
76936;DHT22;65881;52.438;16.744;2023-12-22T01:31:30;4.00;99.90
76936;DHT22;65881;52.438;16.744;2023-12-22T01:33:56;3.90;99.90
76936;DHT22;65881;52.438;16.744;2023-12-22T01:36:21;3.90;99.90
76936;DHT22;65881;52.438;16.744;2023-12-22T01:38:47;3.90;99.90
76936;DHT22;65881;52.438;16.744;2023-12-22T01:41:13;3.90;99.90
76936;DHT22;65881;52.438;16.744;2023-12-22T01:43:39;3.90;99.90
76936;DHT22;65881;52.438;16.744;2023-12-22T01:46:06;3.70;99.90
76936;DHT22;65881;52.438;16.744;2023-12-22T01:48:33;3.70;99.90
76936;DHT22;65881;52.438;16.744;2023-12-22T01:51:00;3.70;99.90
76936;DHT22;65881;52.438;16.744;2023-12-22T01:53:26;3.70;99.90
76936;DHT22;65881;52.438;16.744;2023-12-22T01:55:53;3.70;99.90
76936;DHT22;65881;52.438;16.744;2023-12-22T01:58:24;3.70;99.90
76936;DHT22;65881;52.438;16.744;2023-12-22T02:00:53;3.70;99.90
76936;DHT22;65881;52.438;16.744;2023-12-22T02:03:19;3.80;99.90
76936;DHT22;65881;52.438;16.744;2023-12-22T02:05:46;3.80;99.90
76936;DHT22;65881;52.438;16.744;2023-12-22T02:08:12;3.80;99.90
76936;DHT22;65881;52.438;16.744;2023-12-22T02:10:38;3.90;99.90
76936;DHT22;65881;52.438;16.744;2023-12-22T02:13:07;3.90;99.90
76936;DHT22;65881;52.438;16.744;2023-12-22T02:15:34;3.90;99.90
76936;DHT22;65881;52.438;16.744;2023-12-22T02:20:32;3.90;99.90
76936;DHT22;65881;52.438;16.744;2023-12-22T02:22:58;3.90;99.90
76936;DHT22;65881;52.438;16.744;2023-12-22T02:25:23;3.90;99.90
76936;DHT22;65881;52.438;16.744;2023-12-22T02:28:02;3.90;99.90
76936;DHT22;65881;52.438;16.744;2023-12-22T02:30:43;3.90;99.90
76936;DHT22;65881;52.438;16.744;2023-12-22T02:33:12;3.90;99.90
76936;DHT22;65881;52.438;16.744;2023-12-22T02:35:42;4.00;99.90
76936;DHT22;65881;52.438;16.744;2023-12-22T02:38:12;4.00;99.90
76936;DHT22;65881;52.438;16.744;2023-12-22T02:40:38;4.00;99.90
76936;DHT22;65881;52.438;16.744;2023-12-22T02:43:05;3.90;99.90
76936;DHT22;65881;52.438;16.744;2023-12-22T02:45:32;3.90;99.90
76936;DHT22;65881;52.438;16.744;2023-12-22T02:47:58;3.90;99.90
76936;DHT22;65881;52.438;16.744;2023-12-22T02:50:24;3.90;99.90
76936;DHT22;65881;52.438;16.744;2023-12-22T02:52:49;4.00;99.90
76936;DHT22;65881;52.438;16.744;2023-12-22T02:55:15;3.90;99.90
76936;DHT22;65881;52.438;16.744;2023-12-22T02:57:41;3.90;99.90
76936;DHT22;65881;52.438;16.744;2023-12-22T03:00:07;3.90;99.90
76936;DHT22;65881;52.438;16.744;2023-12-22T03:02:33;3.90;99.90
76936;DHT22;65881;52.438;16.744;2023-12-22T03:04:58;3.90;99.90
76936;DHT22;65881;52.438;16.744;2023-12-22T03:07:24;3.90;99.90
76936;DHT22;65881;52.438;16.744;2023-12-22T03:09:49;3.90;99.90
76936;DHT22;65881;52.438;16.744;2023-12-22T03:12:15;3.80;99.90
76936;DHT22;65881;52.438;16.744;2023-12-22T03:14:41;3.70;99.90
76936;DHT22;65881;52.438;16.744;2023-12-22T03:17:07;3.70;99.90
76936;DHT22;65881;52.438;16.744;2023-12-22T03:19:33;3.80;99.90
76936;DHT22;65881;52.438;16.744;2023-12-22T03:21:59;3.70;99.90
76936;DHT22;65881;52.438;16.744;2023-12-22T03:24:26;3.60;99.90
76936;DHT22;65881;52.438;16.744;2023-12-22T03:26:52;3.60;99.90
76936;DHT22;65881;52.438;16.744;2023-12-22T03:29:18;3.50;99.90
76936;DHT22;65881;52.438;16.744;2023-12-22T03:31:44;3.50;99.90
76936;DHT22;65881;52.438;16.744;2023-12-22T03:34:10;3.50;99.90
76936;DHT22;65881;52.438;16.744;2023-12-22T03:36:36;3.50;99.90
76936;DHT22;65881;52.438;16.744;2023-12-22T03:39:02;3.50;99.90
76936;DHT22;65881;52.438;16.744;2023-12-22T03:41:29;3.50;99.90
76936;DHT22;65881;52.438;16.744;2023-12-22T03:43:55;3.50;97.80
76936;DHT22;65881;52.438;16.744;2023-12-22T03:46:21;3.50;98.70
76936;DHT22;65881;52.438;16.744;2023-12-22T03:48:46;3.50;98.80
76936;DHT22;65881;52.438;16.744;2023-12-22T03:51:12;3.50;98.90
76936;DHT22;65881;52.438;16.744;2023-12-22T03:53:40;3.50;98.70
76936;DHT22;65881;52.438;16.744;2023-12-22T03:56:07;3.50;99.90
76936;DHT22;65881;52.438;16.744;2023-12-22T03:58:33;3.50;99.90
76936;DHT22;65881;52.438;16.744;2023-12-22T04:00:59;3.30;99.90
76936;DHT22;65881;52.438;16.744;2023-12-22T04:03:24;3.40;99.90
76936;DHT22;65881;52.438;16.744;2023-12-22T04:05:50;3.30;99.90
76936;DHT22;65881;52.438;16.744;2023-12-22T04:08:15;3.30;99.90
76936;DHT22;65881;52.438;16.744;2023-12-22T04:10:41;3.50;99.90
76936;DHT22;65881;52.438;16.744;2023-12-22T04:13:10;3.50;99.90
76936;DHT22;65881;52.438;16.744;2023-12-22T04:15:35;3.40;99.90
76936;DHT22;65881;52.438;16.744;2023-12-22T04:18:01;3.40;99.90
76936;DHT22;65881;52.438;16.744;2023-12-22T04:20:27;3.40;99.90
76936;DHT22;65881;52.438;16.744;2023-12-22T04:22:52;3.30;99.90
76936;DHT22;65881;52.438;16.744;2023-12-22T04:25:18;3.10;99.90
76936;DHT22;65881;52.438;16.744;2023-12-22T04:27:45;3.10;99.90
76936;DHT22;65881;52.438;16.744;2023-12-22T04:30:12;3.10;99.90
76936;DHT22;65881;52.438;16.744;2023-12-22T04:32:37;3.10;98.20
76936;DHT22;65881;52.438;16.744;2023-12-22T04:35:03;3.10;98.90
76936;DHT22;65881;52.438;16.744;2023-12-22T04:37:29;3.10;97.50
76936;DHT22;65881;52.438;16.744;2023-12-22T04:39:54;3.10;98.30
76936;DHT22;65881;52.438;16.744;2023-12-22T04:42:20;3.00;98.00
76936;DHT22;65881;52.438;16.744;2023-12-22T04:44:46;2.90;98.30
76936;DHT22;65881;52.438;16.744;2023-12-22T04:47:11;2.90;98.30
76936;DHT22;65881;52.438;16.744;2023-12-22T04:49:38;2.80;98.30
76936;DHT22;65881;52.438;16.744;2023-12-22T04:52:03;2.70;99.70
76936;DHT22;65881;52.438;16.744;2023-12-22T04:54:29;2.70;99.90
76936;DHT22;65881;52.438;16.744;2023-12-22T04:56:55;2.70;99.90
76936;DHT22;65881;52.438;16.744;2023-12-22T04:59:20;2.70;99.90
76936;DHT22;65881;52.438;16.744;2023-12-22T05:01:46;2.80;99.90
76936;DHT22;65881;52.438;16.744;2023-12-22T05:04:12;2.80;99.90
76936;DHT22;65881;52.438;16.744;2023-12-22T05:06:37;2.70;99.90
76936;DHT22;65881;52.438;16.744;2023-12-22T05:09:03;2.70;99.90
76936;DHT22;65881;52.438;16.744;2023-12-22T05:11:29;2.60;99.90
76936;DHT22;65881;52.438;16.744;2023-12-22T05:13:54;2.60;99.90
76936;DHT22;65881;52.438;16.744;2023-12-22T05:16:20;2.60;99.90
76936;DHT22;65881;52.438;16.744;2023-12-22T05:18:46;2.60;99.90
76936;DHT22;65881;52.438;16.744;2023-12-22T05:21:15;2.60;99.90
76936;DHT22;65881;52.438;16.744;2023-12-22T05:23:42;2.50;99.90
76936;DHT22;65881;52.438;16.744;2023-12-22T05:26:07;2.60;99.90
76936;DHT22;65881;52.438;16.744;2023-12-22T05:28:33;2.60;99.90
76936;DHT22;65881;52.438;16.744;2023-12-22T05:30:59;2.50;99.90
76936;DHT22;65881;52.438;16.744;2023-12-22T05:33:24;2.50;99.90
76936;DHT22;65881;52.438;16.744;2023-12-22T05:35:50;2.50;99.90
76936;DHT22;65881;52.438;16.744;2023-12-22T05:38:15;2.50;99.90
76936;DHT22;65881;52.438;16.744;2023-12-22T05:40:41;2.50;99.90
76936;DHT22;65881;52.438;16.744;2023-12-22T05:43:07;2.60;99.90
76936;DHT22;65881;52.438;16.744;2023-12-22T05:45:32;2.50;99.90
76936;DHT22;65881;52.438;16.744;2023-12-22T05:47:58;2.50;99.90
76936;DHT22;65881;52.438;16.744;2023-12-22T05:50:24;2.40;99.90
76936;DHT22;65881;52.438;16.744;2023-12-22T05:52:49;2.50;99.90
76936;DHT22;65881;52.438;16.744;2023-12-22T05:55:15;2.50;99.90
76936;DHT22;65881;52.438;16.744;2023-12-22T05:57:40;2.50;99.90
76936;DHT22;65881;52.438;16.744;2023-12-22T06:00:06;2.50;99.90
76936;DHT22;65881;52.438;16.744;2023-12-22T06:02:35;2.40;99.90
76936;DHT22;65881;52.438;16.744;2023-12-22T06:05:01;2.40;99.90
76936;DHT22;65881;52.438;16.744;2023-12-22T06:07:26;2.50;99.90
76936;DHT22;65881;52.438;16.744;2023-12-22T06:09:52;2.50;99.90
76936;DHT22;65881;52.438;16.744;2023-12-22T06:12:20;2.50;99.90
76936;DHT22;65881;52.438;16.744;2023-12-22T06:14:46;2.50;99.90
76936;DHT22;65881;52.438;16.744;2023-12-22T06:17:12;2.50;99.90
76936;DHT22;65881;52.438;16.744;2023-12-22T06:19:37;2.50;99.90
76936;DHT22;65881;52.438;16.744;2023-12-22T06:22:03;2.50;99.90
76936;DHT22;65881;52.438;16.744;2023-12-22T06:24:29;2.50;99.90
76936;DHT22;65881;52.438;16.744;2023-12-22T06:26:54;2.50;99.90
76936;DHT22;65881;52.438;16.744;2023-12-22T06:29:20;2.50;99.90
76936;DHT22;65881;52.438;16.744;2023-12-22T06:31:46;2.50;99.90
76936;DHT22;65881;52.438;16.744;2023-12-22T06:34:17;2.50;99.90
76936;DHT22;65881;52.438;16.744;2023-12-22T06:36:43;2.50;99.90
76936;DHT22;65881;52.438;16.744;2023-12-22T06:39:09;2.70;99.90
76936;DHT22;65881;52.438;16.744;2023-12-22T06:41:34;2.50;99.90
76936;DHT22;65881;52.438;16.744;2023-12-22T06:44:00;2.50;99.90
76936;DHT22;65881;52.438;16.744;2023-12-22T06:46:26;2.50;99.90
76936;DHT22;65881;52.438;16.744;2023-12-22T06:48:53;2.50;99.90
76936;DHT22;65881;52.438;16.744;2023-12-22T06:51:27;2.60;99.90
76936;DHT22;65881;52.438;16.744;2023-12-22T06:53:54;2.70;99.90
76936;DHT22;65881;52.438;16.744;2023-12-22T06:56:24;2.70;99.90
76936;DHT22;65881;52.438;16.744;2023-12-22T06:58:52;2.70;99.90
76936;DHT22;65881;52.438;16.744;2023-12-22T07:01:38;2.80;99.90
76936;DHT22;65881;52.438;16.744;2023-12-22T07:04:04;2.80;99.90
76936;DHT22;65881;52.438;16.744;2023-12-22T07:06:34;2.80;99.90
76936;DHT22;65881;52.438;16.744;2023-12-22T07:11:43;2.80;99.90
76936;DHT22;65881;52.438;16.744;2023-12-22T07:14:09;2.90;99.90
76936;DHT22;65881;52.438;16.744;2023-12-22T07:16:36;2.80;99.90
76936;DHT22;65881;52.438;16.744;2023-12-22T07:19:03;2.80;99.90
76936;DHT22;65881;52.438;16.744;2023-12-22T07:21:28;2.80;99.90
76936;DHT22;65881;52.438;16.744;2023-12-22T07:23:55;2.80;99.90
76936;DHT22;65881;52.438;16.744;2023-12-22T07:26:21;2.80;99.90
76936;DHT22;65881;52.438;16.744;2023-12-22T07:28:47;2.90;99.90
76936;DHT22;65881;52.438;16.744;2023-12-22T07:31:14;2.80;99.90
76936;DHT22;65881;52.438;16.744;2023-12-22T07:33:43;2.90;99.90
76936;DHT22;65881;52.438;16.744;2023-12-22T07:36:09;2.90;99.90
76936;DHT22;65881;52.438;16.744;2023-12-22T07:38:35;2.90;99.90
76936;DHT22;65881;52.438;16.744;2023-12-22T07:41:01;2.90;99.90
76936;DHT22;65881;52.438;16.744;2023-12-22T07:43:27;2.90;99.90
76936;DHT22;65881;52.438;16.744;2023-12-22T07:45:55;2.90;99.90
76936;DHT22;65881;52.438;16.744;2023-12-22T07:48:20;2.80;99.90
76936;DHT22;65881;52.438;16.744;2023-12-22T07:50:46;2.80;99.90
76936;DHT22;65881;52.438;16.744;2023-12-22T07:53:12;2.70;99.90
76936;DHT22;65881;52.438;16.744;2023-12-22T07:55:38;2.70;99.90
76936;DHT22;65881;52.438;16.744;2023-12-22T07:58:05;2.80;99.90
76936;DHT22;65881;52.438;16.744;2023-12-22T08:00:30;2.70;99.90
76936;DHT22;65881;52.438;16.744;2023-12-22T08:02:56;2.70;99.90
76936;DHT22;65881;52.438;16.744;2023-12-22T08:05:22;2.60;99.90
76936;DHT22;65881;52.438;16.744;2023-12-22T08:07:47;2.70;99.90
76936;DHT22;65881;52.438;16.744;2023-12-22T08:10:13;2.70;99.90
76936;DHT22;65881;52.438;16.744;2023-12-22T08:12:38;2.80;99.90
76936;DHT22;65881;52.438;16.744;2023-12-22T08:15:04;2.80;99.90
76936;DHT22;65881;52.438;16.744;2023-12-22T08:17:31;2.70;99.90
76936;DHT22;65881;52.438;16.744;2023-12-22T08:19:57;2.50;99.90
76936;DHT22;65881;52.438;16.744;2023-12-22T08:22:22;2.00;99.90
76936;DHT22;65881;52.438;16.744;2023-12-22T08:24:49;1.70;99.90
76936;DHT22;65881;52.438;16.744;2023-12-22T08:27:14;1.50;99.90
76936;DHT22;65881;52.438;16.744;2023-12-22T08:29:40;1.50;99.90
76936;DHT22;65881;52.438;16.744;2023-12-22T08:32:06;1.60;99.90
76936;DHT22;65881;52.438;16.744;2023-12-22T08:34:31;1.90;99.90
76936;DHT22;65881;52.438;16.744;2023-12-22T08:36:57;2.20;99.90
76936;DHT22;65881;52.438;16.744;2023-12-22T08:39:23;2.50;99.90
76936;DHT22;65881;52.438;16.744;2023-12-22T08:41:54;2.50;99.90
76936;DHT22;65881;52.438;16.744;2023-12-22T08:44:20;2.60;99.90
76936;DHT22;65881;52.438;16.744;2023-12-22T08:46:45;2.70;99.90
76936;DHT22;65881;52.438;16.744;2023-12-22T08:49:11;2.70;99.90
76936;DHT22;65881;52.438;16.744;2023-12-22T08:51:37;2.80;99.90
76936;DHT22;65881;52.438;16.744;2023-12-22T08:54:02;2.80;99.90
76936;DHT22;65881;52.438;16.744;2023-12-22T08:56:31;2.80;99.90
76936;DHT22;65881;52.438;16.744;2023-12-22T08:58:56;2.80;99.90
76936;DHT22;65881;52.438;16.744;2023-12-22T09:01:25;2.80;99.90
76936;DHT22;65881;52.438;16.744;2023-12-22T09:03:51;2.80;99.90
76936;DHT22;65881;52.438;16.744;2023-12-22T09:06:20;2.50;99.90
76936;DHT22;65881;52.438;16.744;2023-12-22T09:08:46;2.50;99.90
76936;DHT22;65881;52.438;16.744;2023-12-22T09:11:13;2.50;99.90
76936;DHT22;65881;52.438;16.744;2023-12-22T09:13:40;2.40;99.90
76936;DHT22;65881;52.438;16.744;2023-12-22T09:16:07;2.40;99.90
76936;DHT22;65881;52.438;16.744;2023-12-22T09:18:34;2.40;99.90
76936;DHT22;65881;52.438;16.744;2023-12-22T09:21:00;2.40;99.90
76936;DHT22;65881;52.438;16.744;2023-12-22T09:23:25;2.50;99.90
76936;DHT22;65881;52.438;16.744;2023-12-22T09:25:51;2.50;99.90
76936;DHT22;65881;52.438;16.744;2023-12-22T09:28:17;2.50;99.90
76936;DHT22;65881;52.438;16.744;2023-12-22T09:30:42;2.50;99.90
76936;DHT22;65881;52.438;16.744;2023-12-22T09:33:09;2.70;99.90
76936;DHT22;65881;52.438;16.744;2023-12-22T09:35:35;2.70;99.90
76936;DHT22;65881;52.438;16.744;2023-12-22T09:38:01;2.70;99.90
76936;DHT22;65881;52.438;16.744;2023-12-22T09:40:29;2.70;99.90
76936;DHT22;65881;52.438;16.744;2023-12-22T09:42:55;2.70;99.90
76936;DHT22;65881;52.438;16.744;2023-12-22T09:45:21;2.80;99.90
76936;DHT22;65881;52.438;16.744;2023-12-22T09:47:48;2.80;99.90
76936;DHT22;65881;52.438;16.744;2023-12-22T09:50:15;2.80;99.90
76936;DHT22;65881;52.438;16.744;2023-12-22T09:52:42;2.80;99.90
76936;DHT22;65881;52.438;16.744;2023-12-22T09:55:13;2.90;99.90
76936;DHT22;65881;52.438;16.744;2023-12-22T09:57:39;2.90;99.90
76936;DHT22;65881;52.438;16.744;2023-12-22T10:00:09;3.00;99.90
76936;DHT22;65881;52.438;16.744;2023-12-22T10:02:36;3.10;99.90
76936;DHT22;65881;52.438;16.744;2023-12-22T10:05:03;3.10;99.90
76936;DHT22;65881;52.438;16.744;2023-12-22T10:07:30;3.10;99.90
76936;DHT22;65881;52.438;16.744;2023-12-22T10:09:57;3.10;99.90
76936;DHT22;65881;52.438;16.744;2023-12-22T10:12:24;3.10;99.90
76936;DHT22;65881;52.438;16.744;2023-12-22T10:14:51;3.10;99.90
76936;DHT22;65881;52.438;16.744;2023-12-22T10:17:18;3.00;99.90
76936;DHT22;65881;52.438;16.744;2023-12-22T10:19:45;3.00;99.90
76936;DHT22;65881;52.438;16.744;2023-12-22T10:22:11;3.00;99.90
76936;DHT22;65881;52.438;16.744;2023-12-22T10:24:41;2.90;99.90
76936;DHT22;65881;52.438;16.744;2023-12-22T10:27:09;3.00;99.90
76936;DHT22;65881;52.438;16.744;2023-12-22T10:29:35;3.00;99.90
76936;DHT22;65881;52.438;16.744;2023-12-22T10:32:02;3.00;99.90
76936;DHT22;65881;52.438;16.744;2023-12-22T10:34:28;3.10;99.90
76936;DHT22;65881;52.438;16.744;2023-12-22T10:36:54;3.10;99.90
76936;DHT22;65881;52.438;16.744;2023-12-22T10:39:21;3.10;99.90
76936;DHT22;65881;52.438;16.744;2023-12-22T10:41:48;3.10;99.90
76936;DHT22;65881;52.438;16.744;2023-12-22T10:44:16;3.10;99.90
76936;DHT22;65881;52.438;16.744;2023-12-22T10:46:43;3.10;99.90
76936;DHT22;65881;52.438;16.744;2023-12-22T10:49:09;3.10;99.90
76936;DHT22;65881;52.438;16.744;2023-12-22T10:51:34;3.10;99.90
76936;DHT22;65881;52.438;16.744;2023-12-22T10:54:00;3.10;99.90
76936;DHT22;65881;52.438;16.744;2023-12-22T10:56:26;3.30;99.90
76936;DHT22;65881;52.438;16.744;2023-12-22T10:58:56;3.30;99.90
76936;DHT22;65881;52.438;16.744;2023-12-22T11:01:23;3.30;99.90
76936;DHT22;65881;52.438;16.744;2023-12-22T11:03:51;3.30;99.90
76936;DHT22;65881;52.438;16.744;2023-12-22T11:06:17;3.40;99.90
76936;DHT22;65881;52.438;16.744;2023-12-22T11:08:47;3.50;99.90
76936;DHT22;65881;52.438;16.744;2023-12-22T11:11:31;3.40;99.90
76936;DHT22;65881;52.438;16.744;2023-12-22T11:14:00;3.40;99.90
76936;DHT22;65881;52.438;16.744;2023-12-22T11:16:28;3.40;99.90
76936;DHT22;65881;52.438;16.744;2023-12-22T11:18:54;3.50;99.90
76936;DHT22;65881;52.438;16.744;2023-12-22T11:21:24;3.50;99.90
76936;DHT22;65881;52.438;16.744;2023-12-22T11:23:51;3.50;99.90
76936;DHT22;65881;52.438;16.744;2023-12-22T11:26:21;3.50;99.90
76936;DHT22;65881;52.438;16.744;2023-12-22T11:28:48;3.50;99.90
76936;DHT22;65881;52.438;16.744;2023-12-22T11:31:14;3.50;99.90
76936;DHT22;65881;52.438;16.744;2023-12-22T11:33:48;3.40;99.90
76936;DHT22;65881;52.438;16.744;2023-12-22T11:36:15;3.30;99.90
76936;DHT22;65881;52.438;16.744;2023-12-22T11:38:43;3.30;99.90
76936;DHT22;65881;52.438;16.744;2023-12-22T11:41:33;3.30;99.90
76936;DHT22;65881;52.438;16.744;2023-12-22T11:44:01;3.30;99.90
76936;DHT22;65881;52.438;16.744;2023-12-22T11:46:29;3.30;99.90
76936;DHT22;65881;52.438;16.744;2023-12-22T11:48:57;3.30;99.90
76936;DHT22;65881;52.438;16.744;2023-12-22T11:51:22;3.30;99.90
76936;DHT22;65881;52.438;16.744;2023-12-22T11:53:48;3.10;99.90
76936;DHT22;65881;52.438;16.744;2023-12-22T11:56:14;3.10;99.90
76936;DHT22;65881;52.438;16.744;2023-12-22T11:58:41;3.10;99.90
76936;DHT22;65881;52.438;16.744;2023-12-22T12:01:11;3.10;99.90
76936;DHT22;65881;52.438;16.744;2023-12-22T12:03:48;3.10;99.90
76936;DHT22;65881;52.438;16.744;2023-12-22T12:08:51;3.10;99.90
76936;DHT22;65881;52.438;16.744;2023-12-22T12:11:17;3.10;99.90
76936;DHT22;65881;52.438;16.744;2023-12-22T12:13:44;3.10;99.90
76936;DHT22;65881;52.438;16.744;2023-12-22T12:16:14;3.10;99.90
76936;DHT22;65881;52.438;16.744;2023-12-22T12:18:41;3.10;99.90
76936;DHT22;65881;52.438;16.744;2023-12-22T12:21:08;3.10;99.90
76936;DHT22;65881;52.438;16.744;2023-12-22T12:23:34;3.10;99.90
76936;DHT22;65881;52.438;16.744;2023-12-22T12:26:00;3.10;99.90
76936;DHT22;65881;52.438;16.744;2023-12-22T12:28:31;3.10;99.90
76936;DHT22;65881;52.438;16.744;2023-12-22T12:30:57;3.10;99.90
76936;DHT22;65881;52.438;16.744;2023-12-22T12:33:28;3.10;99.90
76936;DHT22;65881;52.438;16.744;2023-12-22T12:35:55;3.10;99.90
76936;DHT22;65881;52.438;16.744;2023-12-22T12:38:25;3.20;99.90
76936;DHT22;65881;52.438;16.744;2023-12-22T12:40:54;3.20;99.90
76936;DHT22;65881;52.438;16.744;2023-12-22T12:43:22;3.20;99.90
76936;DHT22;65881;52.438;16.744;2023-12-22T12:45:48;3.20;99.90
76936;DHT22;65881;52.438;16.744;2023-12-22T12:48:16;3.30;99.90
76936;DHT22;65881;52.438;16.744;2023-12-22T12:50:43;3.30;99.90
76936;DHT22;65881;52.438;16.744;2023-12-22T12:53:09;3.30;99.90
76936;DHT22;65881;52.438;16.744;2023-12-22T12:55:35;3.30;99.90
76936;DHT22;65881;52.438;16.744;2023-12-22T12:58:00;3.30;99.90
76936;DHT22;65881;52.438;16.744;2023-12-22T13:00:33;3.30;99.90
76936;DHT22;65881;52.438;16.744;2023-12-22T13:03:03;3.30;99.90
76936;DHT22;65881;52.438;16.744;2023-12-22T13:05:30;3.50;99.90
76936;DHT22;65881;52.438;16.744;2023-12-22T13:08:09;3.50;99.90
76936;DHT22;65881;52.438;16.744;2023-12-22T13:10:35;3.50;99.90
76936;DHT22;65881;52.438;16.744;2023-12-22T13:13:01;3.50;99.90
76936;DHT22;65881;52.438;16.744;2023-12-22T13:15:27;3.50;99.90
76936;DHT22;65881;52.438;16.744;2023-12-22T13:17:52;3.50;99.90
76936;DHT22;65881;52.438;16.744;2023-12-22T13:20:18;3.50;99.90
76936;DHT22;65881;52.438;16.744;2023-12-22T13:22:44;3.50;99.90
76936;DHT22;65881;52.438;16.744;2023-12-22T13:25:10;3.50;99.90
76936;DHT22;65881;52.438;16.744;2023-12-22T13:27:46;3.50;99.90
76936;DHT22;65881;52.438;16.744;2023-12-22T13:30:33;3.50;99.90
76936;DHT22;65881;52.438;16.744;2023-12-22T13:32:58;3.50;99.90
76936;DHT22;65881;52.438;16.744;2023-12-22T13:35:24;3.50;99.90
76936;DHT22;65881;52.438;16.744;2023-12-22T13:37:52;3.50;99.00
76936;DHT22;65881;52.438;16.744;2023-12-22T13:40:18;3.50;98.30
76936;DHT22;65881;52.438;16.744;2023-12-22T13:42:44;3.60;99.00
76936;DHT22;65881;52.438;16.744;2023-12-22T13:45:12;3.50;98.00
76936;DHT22;65881;52.438;16.744;2023-12-22T13:47:44;3.50;96.40
76936;DHT22;65881;52.438;16.744;2023-12-22T13:50:14;3.60;96.40
76936;DHT22;65881;52.438;16.744;2023-12-22T13:52:40;3.60;95.80
76936;DHT22;65881;52.438;16.744;2023-12-22T13:55:12;3.60;95.80
76936;DHT22;65881;52.438;16.744;2023-12-22T13:57:39;3.60;96.90
76936;DHT22;65881;52.438;16.744;2023-12-22T14:02:46;3.50;98.60
76936;DHT22;65881;52.438;16.744;2023-12-22T14:05:12;3.50;97.50
76936;DHT22;65881;52.438;16.744;2023-12-22T14:07:38;3.50;96.20
76936;DHT22;65881;52.438;16.744;2023-12-22T14:10:07;3.50;96.70
76936;DHT22;65881;52.438;16.744;2023-12-22T14:12:33;3.60;97.80
76936;DHT22;65881;52.438;16.744;2023-12-22T14:14:58;3.50;97.70
76936;DHT22;65881;52.438;16.744;2023-12-22T14:17:25;3.50;97.80
76936;DHT22;65881;52.438;16.744;2023-12-22T14:19:51;3.50;96.30
76936;DHT22;65881;52.438;16.744;2023-12-22T14:22:16;3.40;95.80
76936;DHT22;65881;52.438;16.744;2023-12-22T14:24:42;3.50;97.00
76936;DHT22;65881;52.438;16.744;2023-12-22T14:27:08;3.40;95.60
76936;DHT22;65881;52.438;16.744;2023-12-22T14:29:34;3.30;95.90
76936;DHT22;65881;52.438;16.744;2023-12-22T14:32:02;3.30;95.70
76936;DHT22;65881;52.438;16.744;2023-12-22T14:34:27;3.30;94.50
76936;DHT22;65881;52.438;16.744;2023-12-22T14:36:53;3.30;78.60
76936;DHT22;65881;52.438;16.744;2023-12-22T14:39:20;3.30;76.80
76936;DHT22;65881;52.438;16.744;2023-12-22T14:41:45;3.30;77.90
76936;DHT22;65881;52.438;16.744;2023-12-22T14:44:12;3.30;78.70
76936;DHT22;65881;52.438;16.744;2023-12-22T14:46:40;3.20;77.60
76936;DHT22;65881;52.438;16.744;2023-12-22T14:49:06;3.20;79.20
76936;DHT22;65881;52.438;16.744;2023-12-22T14:51:36;3.10;79.00
76936;DHT22;65881;52.438;16.744;2023-12-22T14:54:03;3.10;78.60
76936;DHT22;65881;52.438;16.744;2023-12-22T14:56:29;3.10;79.20
76936;DHT22;65881;52.438;16.744;2023-12-22T14:58:54;3.00;80.60
76936;DHT22;65881;52.438;16.744;2023-12-22T15:01:20;3.00;81.10
76936;DHT22;65881;52.438;16.744;2023-12-22T15:03:46;2.90;81.80
76936;DHT22;65881;52.438;16.744;2023-12-22T15:06:12;2.90;81.60
76936;DHT22;65881;52.438;16.744;2023-12-22T15:08:38;2.90;81.60
76936;DHT22;65881;52.438;16.744;2023-12-22T15:11:03;3.00;80.90
76936;DHT22;65881;52.438;16.744;2023-12-22T15:13:29;3.00;80.50
76936;DHT22;65881;52.438;16.744;2023-12-22T15:15:54;3.00;80.20
76936;DHT22;65881;52.438;16.744;2023-12-22T15:18:20;3.00;80.50
76936;DHT22;65881;52.438;16.744;2023-12-22T15:20:46;3.00;81.00
76936;DHT22;65881;52.438;16.744;2023-12-22T15:23:11;3.00;79.50
76936;DHT22;65881;52.438;16.744;2023-12-22T15:25:37;3.00;75.50
76936;DHT22;65881;52.438;16.744;2023-12-22T15:28:03;3.00;75.20
76936;DHT22;65881;52.438;16.744;2023-12-22T15:30:28;3.00;72.80
76936;DHT22;65881;52.438;16.744;2023-12-22T15:32:55;3.00;72.70
76936;DHT22;65881;52.438;16.744;2023-12-22T15:35:21;3.10;72.00
76936;DHT22;65881;52.438;16.744;2023-12-22T15:37:47;3.10;72.20